Kellerville, Indiana
Current Conditions -  °F | °C
As of 8:35 AM on Friday 31 Oct 2014 (Local Time) from KHNB Reporting Station
Few Clouds Few Clouds  
Wind Chill: 42°   Ceiling: Unl
Heat Index: 46°   Visibility: 9mi
Dew Point: 43°   Wind: 8mph
Humidity: 87%   Direction: 340°NNW
Pressure: 30.05"   Gusts: NA
Location:  38.4736°N, 86.7813°W
Report Text: KHNB 311335Z AUTO 34007KT 9SM FEW046 08/06 A3005 RMK AO1
Loading
Personal Weather Stations






























Interactive Weather Map
Tropical Storm Tracking
New forecast layout! Learn more

10-Day Weather Forecast

Advertisements
Track Severe Weather on mobile